sensor_id;sensor_type;location;lat;lon;timestamp;P1;durP1;ratioP1;P2;durP2;ratioP2
20842;SDS011;26719;51.440;-2.574;2022-12-18T00:01:32;0.60;;;0.60;;
20842;SDS011;26719;51.440;-2.574;2022-12-18T00:03:58;0.50;;;0.50;;
20842;SDS011;26719;51.440;-2.574;2022-12-18T00:06:25;0.50;;;0.50;;
20842;SDS011;26719;51.440;-2.574;2022-12-18T00:08:52;0.50;;;0.50;;
20842;SDS011;26719;51.440;-2.574;2022-12-18T00:11:19;0.60;;;0.60;;
20842;SDS011;26719;51.440;-2.574;2022-12-18T00:13:46;0.50;;;0.50;;
20842;SDS011;26719;51.440;-2.574;2022-12-18T00:16:14;0.37;;;0.37;;
20842;SDS011;26719;51.440;-2.574;2022-12-18T00:18:40;0.50;;;0.50;;
20842;SDS011;26719;51.440;-2.574;2022-12-18T00:21:06;0.60;;;0.60;;
20842;SDS011;26719;51.440;-2.574;2022-12-18T00:23:33;0.60;;;0.60;;
20842;SDS011;26719;51.440;-2.574;2022-12-18T00:26:00;0.50;;;0.50;;
20842;SDS011;26719;51.440;-2.574;2022-12-18T00:28:26;0.60;;;0.60;;
20842;SDS011;26719;51.440;-2.574;2022-12-18T00:30:59;0.53;;;0.53;;
20842;SDS011;26719;51.440;-2.574;2022-12-18T00:33:25;0.60;;;0.60;;
20842;SDS011;26719;51.440;-2.574;2022-12-18T00:35:51;0.50;;;0.50;;
20842;SDS011;26719;51.440;-2.574;2022-12-18T00:38:17;0.50;;;0.50;;
20842;SDS011;26719;51.440;-2.574;2022-12-18T00:40:43;0.50;;;0.50;;
20842;SDS011;26719;51.440;-2.574;2022-12-18T00:43:09;0.60;;;0.60;;
20842;SDS011;26719;51.440;-2.574;2022-12-18T00:45:35;0.40;;;0.40;;
20842;SDS011;26719;51.440;-2.574;2022-12-18T00:48:01;0.40;;;0.40;;
20842;SDS011;26719;51.440;-2.574;2022-12-18T00:50:27;0.50;;;0.50;;
20842;SDS011;26719;51.440;-2.574;2022-12-18T00:52:53;0.50;;;0.50;;
20842;SDS011;26719;51.440;-2.574;2022-12-18T00:55:19;0.43;;;0.43;;
20842;SDS011;26719;51.440;-2.574;2022-12-18T00:57:45;0.50;;;0.50;;
20842;SDS011;26719;51.440;-2.574;2022-12-18T01:00:13;0.60;;;0.60;;
20842;SDS011;26719;51.440;-2.574;2022-12-18T01:02:39;0.40;;;0.40;;
20842;SDS011;26719;51.440;-2.574;2022-12-18T01:05:05;0.53;;;0.53;;
20842;SDS011;26719;51.440;-2.574;2022-12-18T01:07:31;0.50;;;0.50;;
20842;SDS011;26719;51.440;-2.574;2022-12-18T01:09:57;0.50;;;0.50;;
20842;SDS011;26719;51.440;-2.574;2022-12-18T01:12:23;0.50;;;0.50;;
20842;SDS011;26719;51.440;-2.574;2022-12-18T01:14:49;0.47;;;0.47;;
20842;SDS011;26719;51.440;-2.574;2022-12-18T01:17:15;0.40;;;0.40;;
20842;SDS011;26719;51.440;-2.574;2022-12-18T01:19:41;0.47;;;0.47;;
20842;SDS011;26719;51.440;-2.574;2022-12-18T01:22:07;0.60;;;0.60;;
20842;SDS011;26719;51.440;-2.574;2022-12-18T01:24:33;0.40;;;0.40;;
20842;SDS011;26719;51.440;-2.574;2022-12-18T01:26:59;0.50;;;0.50;;
20842;SDS011;26719;51.440;-2.574;2022-12-18T01:29:25;0.50;;;0.50;;
20842;SDS011;26719;51.440;-2.574;2022-12-18T01:31:54;0.50;;;0.50;;
20842;SDS011;26719;51.440;-2.574;2022-12-18T01:34:20;0.40;;;0.40;;
20842;SDS011;26719;51.440;-2.574;2022-12-18T01:36:46;0.40;;;0.40;;
20842;SDS011;26719;51.440;-2.574;2022-12-18T01:39:12;0.50;;;0.50;;
20842;SDS011;26719;51.440;-2.574;2022-12-18T01:41:39;0.50;;;0.50;;
20842;SDS011;26719;51.440;-2.574;2022-12-18T01:47:08;0.40;;;0.40;;
20842;SDS011;26719;51.440;-2.574;2022-12-18T01:49:35;0.50;;;0.50;;
20842;SDS011;26719;51.440;-2.574;2022-12-18T01:52:01;0.50;;;0.50;;
20842;SDS011;26719;51.440;-2.574;2022-12-18T01:54:27;0.47;;;0.47;;
20842;SDS011;26719;51.440;-2.574;2022-12-18T01:56:53;0.60;;;0.60;;
20842;SDS011;26719;51.440;-2.574;2022-12-18T01:59:19;0.50;;;0.50;;
20842;SDS011;26719;51.440;-2.574;2022-12-18T02:01:45;0.47;;;0.47;;
20842;SDS011;26719;51.440;-2.574;2022-12-18T02:04:29;0.40;;;0.40;;
20842;SDS011;26719;51.440;-2.574;2022-12-18T02:07:17;0.40;;;0.40;;
20842;SDS011;26719;51.440;-2.574;2022-12-18T02:09:50;0.50;;;0.50;;
20842;SDS011;26719;51.440;-2.574;2022-12-18T02:12:20;0.50;;;0.50;;
20842;SDS011;26719;51.440;-2.574;2022-12-18T02:14:54;0.50;;;0.50;;
20842;SDS011;26719;51.440;-2.574;2022-12-18T02:17:22;0.50;;;0.50;;
20842;SDS011;26719;51.440;-2.574;2022-12-18T02:19:59;0.50;;;0.50;;
20842;SDS011;26719;51.440;-2.574;2022-12-18T02:22:37;0.50;;;0.50;;
20842;SDS011;26719;51.440;-2.574;2022-12-18T02:27:39;0.40;;;0.40;;
20842;SDS011;26719;51.440;-2.574;2022-12-18T02:30:05;0.40;;;0.40;;
20842;SDS011;26719;51.440;-2.574;2022-12-18T02:32:35;0.50;;;0.50;;
20842;SDS011;26719;51.440;-2.574;2022-12-18T02:35:04;0.50;;;0.50;;
20842;SDS011;26719;51.440;-2.574;2022-12-18T02:37:30;0.40;;;0.40;;
20842;SDS011;26719;51.440;-2.574;2022-12-18T02:40:00;0.50;;;0.50;;
20842;SDS011;26719;51.440;-2.574;2022-12-18T02:42:28;0.40;;;0.40;;
20842;SDS011;26719;51.440;-2.574;2022-12-18T02:44:54;0.40;;;0.40;;
20842;SDS011;26719;51.440;-2.574;2022-12-18T02:47:21;0.50;;;0.50;;
20842;SDS011;26719;51.440;-2.574;2022-12-18T02:59:49;0.30;;;0.30;;
20842;SDS011;26719;51.440;-2.574;2022-12-18T03:07:26;0.53;;;0.53;;
20842;SDS011;26719;51.440;-2.574;2022-12-18T03:09:53;0.53;;;0.53;;
20842;SDS011;26719;51.440;-2.574;2022-12-18T03:12:22;0.43;;;0.43;;
20842;SDS011;26719;51.440;-2.574;2022-12-18T03:14:52;0.50;;;0.50;;
20842;SDS011;26719;51.440;-2.574;2022-12-18T03:17:20;0.50;;;0.50;;
20842;SDS011;26719;51.440;-2.574;2022-12-18T03:19:48;0.50;;;0.50;;
20842;SDS011;26719;51.440;-2.574;2022-12-18T03:22:14;0.30;;;0.30;;
20842;SDS011;26719;51.440;-2.574;2022-12-18T03:24:41;0.33;;;0.33;;
20842;SDS011;26719;51.440;-2.574;2022-12-18T03:27:10;0.40;;;0.40;;
20842;SDS011;26719;51.440;-2.574;2022-12-18T03:29:41;0.40;;;0.40;;
20842;SDS011;26719;51.440;-2.574;2022-12-18T03:32:10;0.50;;;0.50;;
20842;SDS011;26719;51.440;-2.574;2022-12-18T03:34:37;0.40;;;0.40;;
20842;SDS011;26719;51.440;-2.574;2022-12-18T03:37:04;0.40;;;0.40;;
20842;SDS011;26719;51.440;-2.574;2022-12-18T03:39:30;0.47;;;0.47;;
20842;SDS011;26719;51.440;-2.574;2022-12-18T03:44:54;0.37;;;0.37;;
20842;SDS011;26719;51.440;-2.574;2022-12-18T03:47:27;0.40;;;0.40;;
20842;SDS011;26719;51.440;-2.574;2022-12-18T03:50:10;0.40;;;0.40;;
20842;SDS011;26719;51.440;-2.574;2022-12-18T03:52:41;0.43;;;0.43;;
20842;SDS011;26719;51.440;-2.574;2022-12-18T03:55:08;0.30;;;0.30;;
20842;SDS011;26719;51.440;-2.574;2022-12-18T03:57:35;0.50;;;0.50;;
20842;SDS011;26719;51.440;-2.574;2022-12-18T04:00:04;0.37;;;0.37;;
20842;SDS011;26719;51.440;-2.574;2022-12-18T04:02:31;0.40;;;0.40;;
20842;SDS011;26719;51.440;-2.574;2022-12-18T04:04:59;0.50;;;0.50;;
20842;SDS011;26719;51.440;-2.574;2022-12-18T04:07:26;0.40;;;0.40;;
20842;SDS011;26719;51.440;-2.574;2022-12-18T04:09:53;0.50;;;0.50;;
20842;SDS011;26719;51.440;-2.574;2022-12-18T04:12:20;0.33;;;0.33;;
20842;SDS011;26719;51.440;-2.574;2022-12-18T04:14:46;0.40;;;0.40;;
20842;SDS011;26719;51.440;-2.574;2022-12-18T04:17:12;0.30;;;0.30;;
20842;SDS011;26719;51.440;-2.574;2022-12-18T04:19:38;0.40;;;0.40;;
20842;SDS011;26719;51.440;-2.574;2022-12-18T04:22:04;0.30;;;0.30;;
20842;SDS011;26719;51.440;-2.574;2022-12-18T04:24:30;0.50;;;0.50;;
20842;SDS011;26719;51.440;-2.574;2022-12-18T04:26:56;0.30;;;0.30;;
20842;SDS011;26719;51.440;-2.574;2022-12-18T04:29:22;0.30;;;0.30;;
20842;SDS011;26719;51.440;-2.574;2022-12-18T04:31:48;0.50;;;0.50;;
20842;SDS011;26719;51.440;-2.574;2022-12-18T04:34:14;0.50;;;0.50;;
20842;SDS011;26719;51.440;-2.574;2022-12-18T04:36:40;0.50;;;0.50;;
20842;SDS011;26719;51.440;-2.574;2022-12-18T04:39:06;0.50;;;0.50;;
20842;SDS011;26719;51.440;-2.574;2022-12-18T04:41:32;0.50;;;0.50;;
20842;SDS011;26719;51.440;-2.574;2022-12-18T04:43:58;0.43;;;0.43;;
20842;SDS011;26719;51.440;-2.574;2022-12-18T04:46:24;0.50;;;0.50;;
20842;SDS011;26719;51.440;-2.574;2022-12-18T04:48:50;0.40;;;0.40;;
20842;SDS011;26719;51.440;-2.574;2022-12-18T04:51:16;0.30;;;0.30;;
20842;SDS011;26719;51.440;-2.574;2022-12-18T04:53:42;0.40;;;0.40;;
20842;SDS011;26719;51.440;-2.574;2022-12-18T04:56:12;0.40;;;0.40;;
20842;SDS011;26719;51.440;-2.574;2022-12-18T04:58:39;0.30;;;0.30;;
20842;SDS011;26719;51.440;-2.574;2022-12-18T05:01:06;0.30;;;0.30;;
20842;SDS011;26719;51.440;-2.574;2022-12-18T05:03:33;0.40;;;0.40;;
20842;SDS011;26719;51.440;-2.574;2022-12-18T05:05:59;0.30;;;0.30;;
20842;SDS011;26719;51.440;-2.574;2022-12-18T05:08:25;0.37;;;0.37;;
20842;SDS011;26719;51.440;-2.574;2022-12-18T05:11:01;0.40;;;0.40;;
20842;SDS011;26719;51.440;-2.574;2022-12-18T05:13:27;0.30;;;0.30;;
20842;SDS011;26719;51.440;-2.574;2022-12-18T05:15:54;0.30;;;0.30;;
20842;SDS011;26719;51.440;-2.574;2022-12-18T05:18:20;0.50;;;0.50;;
20842;SDS011;26719;51.440;-2.574;2022-12-18T05:20:46;0.40;;;0.40;;
20842;SDS011;26719;51.440;-2.574;2022-12-18T05:23:12;0.33;;;0.33;;
20842;SDS011;26719;51.440;-2.574;2022-12-18T05:25:38;0.40;;;0.40;;
20842;SDS011;26719;51.440;-2.574;2022-12-18T05:28:05;0.30;;;0.30;;
20842;SDS011;26719;51.440;-2.574;2022-12-18T05:30:31;0.50;;;0.50;;
20842;SDS011;26719;51.440;-2.574;2022-12-18T05:32:57;0.30;;;0.30;;
20842;SDS011;26719;51.440;-2.574;2022-12-18T05:35:23;0.50;;;0.50;;
20842;SDS011;26719;51.440;-2.574;2022-12-18T05:37:49;0.40;;;0.40;;
20842;SDS011;26719;51.440;-2.574;2022-12-18T05:40:15;0.50;;;0.50;;
20842;SDS011;26719;51.440;-2.574;2022-12-18T05:42:41;0.30;;;0.30;;
20842;SDS011;26719;51.440;-2.574;2022-12-18T05:45:07;0.30;;;0.30;;
20842;SDS011;26719;51.440;-2.574;2022-12-18T05:47:33;0.27;;;0.27;;
20842;SDS011;26719;51.440;-2.574;2022-12-18T05:49:59;0.30;;;0.30;;
20842;SDS011;26719;51.440;-2.574;2022-12-18T05:52:25;0.40;;;0.40;;
20842;SDS011;26719;51.440;-2.574;2022-12-18T05:54:51;0.50;;;0.50;;
20842;SDS011;26719;51.440;-2.574;2022-12-18T05:57:17;0.30;;;0.30;;
20842;SDS011;26719;51.440;-2.574;2022-12-18T05:59:43;0.30;;;0.30;;
20842;SDS011;26719;51.440;-2.574;2022-12-18T06:02:09;0.30;;;0.30;;
20842;SDS011;26719;51.440;-2.574;2022-12-18T06:04:35;0.30;;;0.30;;
20842;SDS011;26719;51.440;-2.574;2022-12-18T06:07:03;0.47;;;0.47;;
20842;SDS011;26719;51.440;-2.574;2022-12-18T06:09:29;0.33;;;0.33;;
20842;SDS011;26719;51.440;-2.574;2022-12-18T06:11:55;0.33;;;0.33;;
20842;SDS011;26719;51.440;-2.574;2022-12-18T06:14:21;0.30;;;0.30;;
20842;SDS011;26719;51.440;-2.574;2022-12-18T06:16:47;0.30;;;0.30;;
20842;SDS011;26719;51.440;-2.574;2022-12-18T06:19:16;0.33;;;0.33;;
20842;SDS011;26719;51.440;-2.574;2022-12-18T06:21:42;0.30;;;0.30;;
20842;SDS011;26719;51.440;-2.574;2022-12-18T06:24:08;0.50;;;0.50;;
20842;SDS011;26719;51.440;-2.574;2022-12-18T06:26:36;0.40;;;0.40;;
20842;SDS011;26719;51.440;-2.574;2022-12-18T06:29:03;0.30;;;0.30;;
20842;SDS011;26719;51.440;-2.574;2022-12-18T06:31:29;0.30;;;0.30;;
20842;SDS011;26719;51.440;-2.574;2022-12-18T06:33:55;0.30;;;0.30;;
20842;SDS011;26719;51.440;-2.574;2022-12-18T06:36:21;0.50;;;0.50;;
20842;SDS011;26719;51.440;-2.574;2022-12-18T06:38:47;0.40;;;0.40;;
20842;SDS011;26719;51.440;-2.574;2022-12-18T06:41:14;0.40;;;0.40;;
20842;SDS011;26719;51.440;-2.574;2022-12-18T06:43:41;0.30;;;0.30;;
20842;SDS011;26719;51.440;-2.574;2022-12-18T06:46:07;0.30;;;0.30;;
20842;SDS011;26719;51.440;-2.574;2022-12-18T06:48:33;0.30;;;0.30;;
20842;SDS011;26719;51.440;-2.574;2022-12-18T06:50:59;0.33;;;0.33;;
20842;SDS011;26719;51.440;-2.574;2022-12-18T06:53:25;0.30;;;0.30;;
20842;SDS011;26719;51.440;-2.574;2022-12-18T06:55:51;0.40;;;0.40;;
20842;SDS011;26719;51.440;-2.574;2022-12-18T06:58:17;0.40;;;0.40;;
20842;SDS011;26719;51.440;-2.574;2022-12-18T07:00:43;0.40;;;0.40;;
20842;SDS011;26719;51.440;-2.574;2022-12-18T07:03:09;0.30;;;0.30;;
20842;SDS011;26719;51.440;-2.574;2022-12-18T07:05:39;0.30;;;0.30;;
20842;SDS011;26719;51.440;-2.574;2022-12-18T07:08:05;0.23;;;0.23;;
20842;SDS011;26719;51.440;-2.574;2022-12-18T07:10:31;0.40;;;0.40;;
20842;SDS011;26719;51.440;-2.574;2022-12-18T07:12:57;0.30;;;0.30;;
20842;SDS011;26719;51.440;-2.574;2022-12-18T07:15:23;0.40;;;0.40;;
20842;SDS011;26719;51.440;-2.574;2022-12-18T07:17:49;0.30;;;0.30;;
20842;SDS011;26719;51.440;-2.574;2022-12-18T07:20:16;0.40;;;0.40;;
20842;SDS011;26719;51.440;-2.574;2022-12-18T07:22:42;0.20;;;0.20;;
20842;SDS011;26719;51.440;-2.574;2022-12-18T07:25:08;0.30;;;0.30;;
20842;SDS011;26719;51.440;-2.574;2022-12-18T07:27:34;0.40;;;0.40;;
20842;SDS011;26719;51.440;-2.574;2022-12-18T07:30:00;0.40;;;0.40;;
20842;SDS011;26719;51.440;-2.574;2022-12-18T07:32:26;0.30;;;0.30;;
20842;SDS011;26719;51.440;-2.574;2022-12-18T07:34:52;0.30;;;0.30;;
20842;SDS011;26719;51.440;-2.574;2022-12-18T07:37:18;0.20;;;0.20;;
20842;SDS011;26719;51.440;-2.574;2022-12-18T07:39:44;0.40;;;0.40;;
20842;SDS011;26719;51.440;-2.574;2022-12-18T07:42:10;0.40;;;0.40;;
20842;SDS011;26719;51.440;-2.574;2022-12-18T07:44:55;0.50;;;0.50;;
20842;SDS011;26719;51.440;-2.574;2022-12-18T07:47:21;0.30;;;0.30;;
20842;SDS011;26719;51.440;-2.574;2022-12-18T07:49:47;0.30;;;0.30;;
20842;SDS011;26719;51.440;-2.574;2022-12-18T07:52:13;0.40;;;0.40;;
20842;SDS011;26719;51.440;-2.574;2022-12-18T07:54:39;0.30;;;0.30;;
20842;SDS011;26719;51.440;-2.574;2022-12-18T07:57:05;0.30;;;0.30;;
20842;SDS011;26719;51.440;-2.574;2022-12-18T07:59:31;0.30;;;0.30;;
20842;SDS011;26719;51.440;-2.574;2022-12-18T08:01:57;0.30;;;0.30;;
20842;SDS011;26719;51.440;-2.574;2022-12-18T08:04:23;0.30;;;0.30;;
20842;SDS011;26719;51.440;-2.574;2022-12-18T08:06:49;0.30;;;0.30;;
20842;SDS011;26719;51.440;-2.574;2022-12-18T08:09:16;0.30;;;0.30;;
20842;SDS011;26719;51.440;-2.574;2022-12-18T08:11:42;0.33;;;0.33;;
20842;SDS011;26719;51.440;-2.574;2022-12-18T08:14:08;0.20;;;0.20;;
20842;SDS011;26719;51.440;-2.574;2022-12-18T08:16:34;0.33;;;0.33;;
20842;SDS011;26719;51.440;-2.574;2022-12-18T08:19:01;0.33;;;0.33;;
20842;SDS011;26719;51.440;-2.574;2022-12-18T08:21:28;0.20;;;0.20;;
20842;SDS011;26719;51.440;-2.574;2022-12-18T08:23:55;0.30;;;0.30;;
20842;SDS011;26719;51.440;-2.574;2022-12-18T08:26:22;0.30;;;0.30;;
20842;SDS011;26719;51.440;-2.574;2022-12-18T08:28:49;0.23;;;0.23;;
20842;SDS011;26719;51.440;-2.574;2022-12-18T08:31:15;0.30;;;0.30;;
20842;SDS011;26719;51.440;-2.574;2022-12-18T08:33:41;0.37;;;0.37;;
20842;SDS011;26719;51.440;-2.574;2022-12-18T08:36:08;0.30;;;0.30;;
20842;SDS011;26719;51.440;-2.574;2022-12-18T08:38:34;0.20;;;0.20;;
20842;SDS011;26719;51.440;-2.574;2022-12-18T08:41:19;0.20;;;0.20;;
20842;SDS011;26719;51.440;-2.574;2022-12-18T08:43:45;0.40;;;0.40;;
20842;SDS011;26719;51.440;-2.574;2022-12-18T08:46:37;0.27;;;0.27;;
20842;SDS011;26719;51.440;-2.574;2022-12-18T08:49:03;0.40;;;0.40;;
20842;SDS011;26719;51.440;-2.574;2022-12-18T08:51:30;0.33;;;0.33;;
20842;SDS011;26719;51.440;-2.574;2022-12-18T08:53:56;0.30;;;0.30;;
20842;SDS011;26719;51.440;-2.574;2022-12-18T08:56:22;0.40;;;0.40;;
20842;SDS011;26719;51.440;-2.574;2022-12-18T08:58:51;0.30;;;0.30;;
20842;SDS011;26719;51.440;-2.574;2022-12-18T09:01:17;0.30;;;0.30;;
20842;SDS011;26719;51.440;-2.574;2022-12-18T09:03:43;0.37;;;0.37;;
20842;SDS011;26719;51.440;-2.574;2022-12-18T09:06:15;0.30;;;0.30;;
20842;SDS011;26719;51.440;-2.574;2022-12-18T09:11:45;0.30;;;0.30;;
20842;SDS011;26719;51.440;-2.574;2022-12-18T09:14:11;0.40;;;0.40;;
20842;SDS011;26719;51.440;-2.574;2022-12-18T09:16:37;0.20;;;0.20;;
20842;SDS011;26719;51.440;-2.574;2022-12-18T09:19:04;0.40;;;0.40;;
20842;SDS011;26719;51.440;-2.574;2022-12-18T09:21:31;0.30;;;0.30;;
20842;SDS011;26719;51.440;-2.574;2022-12-18T09:23:58;0.40;;;0.40;;
20842;SDS011;26719;51.440;-2.574;2022-12-18T09:26:24;0.30;;;0.30;;
20842;SDS011;26719;51.440;-2.574;2022-12-18T09:28:51;0.30;;;0.30;;
20842;SDS011;26719;51.440;-2.574;2022-12-18T09:31:18;0.40;;;0.40;;
20842;SDS011;26719;51.440;-2.574;2022-12-18T09:33:44;0.50;;;0.50;;
20842;SDS011;26719;51.440;-2.574;2022-12-18T09:36:12;0.40;;;0.40;;
20842;SDS011;26719;51.440;-2.574;2022-12-18T09:38:38;0.40;;;0.40;;
20842;SDS011;26719;51.440;-2.574;2022-12-18T09:41:05;0.40;;;0.40;;
20842;SDS011;26719;51.440;-2.574;2022-12-18T09:43:34;0.40;;;0.40;;
20842;SDS011;26719;51.440;-2.574;2022-12-18T09:46:02;0.40;;;0.40;;
20842;SDS011;26719;51.440;-2.574;2022-12-18T09:48:30;0.27;;;0.27;;
20842;SDS011;26719;51.440;-2.574;2022-12-18T09:50:58;0.30;;;0.30;;
20842;SDS011;26719;51.440;-2.574;2022-12-18T09:53:26;0.30;;;0.30;;
20842;SDS011;26719;51.440;-2.574;2022-12-18T09:55:53;0.30;;;0.30;;
20842;SDS011;26719;51.440;-2.574;2022-12-18T09:58:24;0.40;;;0.40;;
20842;SDS011;26719;51.440;-2.574;2022-12-18T10:00:52;0.20;;;0.20;;
20842;SDS011;26719;51.440;-2.574;2022-12-18T10:03:18;0.40;;;0.40;;
20842;SDS011;26719;51.440;-2.574;2022-12-18T10:05:57;0.30;;;0.30;;
20842;SDS011;26719;51.440;-2.574;2022-12-18T10:11:22;0.37;;;0.37;;
20842;SDS011;26719;51.440;-2.574;2022-12-18T10:13:50;0.30;;;0.30;;
20842;SDS011;26719;51.440;-2.574;2022-12-18T10:19:16;0.30;;;0.30;;
20842;SDS011;26719;51.440;-2.574;2022-12-18T10:26:51;0.40;;;0.40;;
20842;SDS011;26719;51.440;-2.574;2022-12-18T10:29:18;0.40;;;0.40;;
20842;SDS011;26719;51.440;-2.574;2022-12-18T10:31:44;0.33;;;0.33;;
20842;SDS011;26719;51.440;-2.574;2022-12-18T10:34:10;0.40;;;0.40;;
20842;SDS011;26719;51.440;-2.574;2022-12-18T10:36:40;0.20;;;0.20;;
20842;SDS011;26719;51.440;-2.574;2022-12-18T10:39:15;0.30;;;0.30;;
20842;SDS011;26719;51.440;-2.574;2022-12-18T10:41:42;0.30;;;0.30;;
20842;SDS011;26719;51.440;-2.574;2022-12-18T10:44:14;0.40;;;0.40;;
20842;SDS011;26719;51.440;-2.574;2022-12-18T10:46:40;0.40;;;0.40;;
20842;SDS011;26719;51.440;-2.574;2022-12-18T10:49:07;0.30;;;0.30;;
20842;SDS011;26719;51.440;-2.574;2022-12-18T10:51:44;0.43;;;0.43;;
20842;SDS011;26719;51.440;-2.574;2022-12-18T10:54:21;0.40;;;0.40;;
20842;SDS011;26719;51.440;-2.574;2022-12-18T10:56:47;0.43;;;0.43;;
20842;SDS011;26719;51.440;-2.574;2022-12-18T10:59:14;0.40;;;0.40;;
20842;SDS011;26719;51.440;-2.574;2022-12-18T11:01:57;0.30;;;0.30;;
20842;SDS011;26719;51.440;-2.574;2022-12-18T11:04:24;0.30;;;0.30;;
20842;SDS011;26719;51.440;-2.574;2022-12-18T11:07:01;0.30;;;0.30;;
20842;SDS011;26719;51.440;-2.574;2022-12-18T11:11:58;0.30;;;0.30;;
20842;SDS011;26719;51.440;-2.574;2022-12-18T11:14:28;0.30;;;0.30;;
20842;SDS011;26719;51.440;-2.574;2022-12-18T11:16:57;0.40;;;0.40;;
20842;SDS011;26719;51.440;-2.574;2022-12-18T11:21:59;0.37;;;0.37;;
20842;SDS011;26719;51.440;-2.574;2022-12-18T11:24:32;0.30;;;0.30;;
20842;SDS011;26719;51.440;-2.574;2022-12-18T11:27:03;0.30;;;0.30;;
20842;SDS011;26719;51.440;-2.574;2022-12-18T11:29:33;0.30;;;0.30;;
20842;SDS011;26719;51.440;-2.574;2022-12-18T11:32:19;0.37;;;0.37;;
20842;SDS011;26719;51.440;-2.574;2022-12-18T11:34:47;0.40;;;0.40;;
20842;SDS011;26719;51.440;-2.574;2022-12-18T11:37:14;0.20;;;0.20;;
20842;SDS011;26719;51.440;-2.574;2022-12-18T11:39:55;0.30;;;0.30;;
20842;SDS011;26719;51.440;-2.574;2022-12-18T11:42:24;0.30;;;0.30;;
20842;SDS011;26719;51.440;-2.574;2022-12-18T11:45:02;0.30;;;0.30;;
20842;SDS011;26719;51.440;-2.574;2022-12-18T11:47:44;0.40;;;0.40;;
20842;SDS011;26719;51.440;-2.574;2022-12-18T11:50:24;0.20;;;0.20;;
20842;SDS011;26719;51.440;-2.574;2022-12-18T11:52:51;0.30;;;0.30;;
20842;SDS011;26719;51.440;-2.574;2022-12-18T12:00:24;0.40;;;0.40;;
20842;SDS011;26719;51.440;-2.574;2022-12-18T12:10:51;0.30;;;0.30;;
20842;SDS011;26719;51.440;-2.574;2022-12-18T12:20:52;0.20;;;0.20;;
20842;SDS011;26719;51.440;-2.574;2022-12-18T12:25:50;0.20;;;0.20;;
20842;SDS011;26719;51.440;-2.574;2022-12-18T12:36:41;0.30;;;0.30;;
20842;SDS011;26719;51.440;-2.574;2022-12-18T12:39:18;0.20;;;0.20;;
20842;SDS011;26719;51.440;-2.574;2022-12-18T12:41:45;0.20;;;0.20;;
20842;SDS011;26719;51.440;-2.574;2022-12-18T12:44:32;0.20;;;0.20;;
20842;SDS011;26719;51.440;-2.574;2022-12-18T12:47:00;0.20;;;0.20;;
20842;SDS011;26719;51.440;-2.574;2022-12-18T12:49:28;0.30;;;0.30;;
20842;SDS011;26719;51.440;-2.574;2022-12-18T12:51:58;0.30;;;0.30;;
20842;SDS011;26719;51.440;-2.574;2022-12-18T12:54:25;0.20;;;0.20;;
20842;SDS011;26719;51.440;-2.574;2022-12-18T13:00:19;0.20;;;0.20;;
20842;SDS011;26719;51.440;-2.574;2022-12-18T13:02:33;0.30;;;0.30;;
20842;SDS011;26719;51.440;-2.574;2022-12-18T13:10:26;0.30;;;0.30;;
20842;SDS011;26719;51.440;-2.574;2022-12-18T13:15:23;0.30;;;0.30;;
20842;SDS011;26719;51.440;-2.574;2022-12-18T13:18:02;0.30;;;0.30;;
20842;SDS011;26719;51.440;-2.574;2022-12-18T13:23:01;0.23;;;0.23;;
20842;SDS011;26719;51.440;-2.574;2022-12-18T13:28:00;0.30;;;0.30;;
20842;SDS011;26719;51.440;-2.574;2022-12-18T13:35:41;0.17;;;0.17;;
20842;SDS011;26719;51.440;-2.574;2022-12-18T13:48:29;0.20;;;0.20;;
20842;SDS011;26719;51.440;-2.574;2022-12-18T13:51:00;0.20;;;0.20;;
20842;SDS011;26719;51.440;-2.574;2022-12-18T13:53:36;0.20;;;0.20;;
20842;SDS011;26719;51.440;-2.574;2022-12-18T13:56:04;0.20;;;0.20;;
20842;SDS011;26719;51.440;-2.574;2022-12-18T13:58:31;0.20;;;0.20;;
20842;SDS011;26719;51.440;-2.574;2022-12-18T14:00:57;0.20;;;0.20;;
20842;SDS011;26719;51.440;-2.574;2022-12-18T14:03:25;0.27;;;0.27;;
20842;SDS011;26719;51.440;-2.574;2022-12-18T14:05:52;0.20;;;0.20;;
20842;SDS011;26719;51.440;-2.574;2022-12-18T14:08:19;0.20;;;0.20;;
20842;SDS011;26719;51.440;-2.574;2022-12-18T14:10:46;0.20;;;0.20;;
20842;SDS011;26719;51.440;-2.574;2022-12-18T14:13:46;0.10;;;0.10;;
20842;SDS011;26719;51.440;-2.574;2022-12-18T14:16:05;0.20;;;0.20;;
20842;SDS011;26719;51.440;-2.574;2022-12-18T14:18:46;0.17;;;0.17;;
20842;SDS011;26719;51.440;-2.574;2022-12-18T14:21:17;0.20;;;0.20;;
20842;SDS011;26719;51.440;-2.574;2022-12-18T14:23:44;0.10;;;0.10;;
20842;SDS011;26719;51.440;-2.574;2022-12-18T14:28:45;0.10;;;0.10;;
20842;SDS011;26719;51.440;-2.574;2022-12-18T14:31:17;0.20;;;0.20;;
20842;SDS011;26719;51.440;-2.574;2022-12-18T14:33:44;0.10;;;0.10;;
20842;SDS011;26719;51.440;-2.574;2022-12-18T14:36:15;0.20;;;0.20;;
20842;SDS011;26719;51.440;-2.574;2022-12-18T14:38:41;0.20;;;0.20;;
20842;SDS011;26719;51.440;-2.574;2022-12-18T14:41:14;0.10;;;0.10;;
20842;SDS011;26719;51.440;-2.574;2022-12-18T14:43:41;0.10;;;0.10;;
20842;SDS011;26719;51.440;-2.574;2022-12-18T14:48:52;0.10;;;0.10;;
20842;SDS011;26719;51.440;-2.574;2022-12-18T14:51:22;0.10;;;0.10;;
20842;SDS011;26719;51.440;-2.574;2022-12-18T14:53:58;0.10;;;0.10;;
20842;SDS011;26719;51.440;-2.574;2022-12-18T14:56:35;0.10;;;0.10;;
20842;SDS011;26719;51.440;-2.574;2022-12-18T14:59:05;0.20;;;0.20;;
20842;SDS011;26719;51.440;-2.574;2022-12-18T15:01:44;0.10;;;0.10;;
20842;SDS011;26719;51.440;-2.574;2022-12-18T15:07:09;0.10;;;0.10;;
20842;SDS011;26719;51.440;-2.574;2022-12-18T15:09:37;0.10;;;0.10;;
20842;SDS011;26719;51.440;-2.574;2022-12-18T15:12:03;0.20;;;0.20;;
20842;SDS011;26719;51.440;-2.574;2022-12-18T15:14:31;0.10;;;0.10;;
20842;SDS011;26719;51.440;-2.574;2022-12-18T15:16:58;0.10;;;0.10;;
20842;SDS011;26719;51.440;-2.574;2022-12-18T15:19:32;0.17;;;0.17;;
20842;SDS011;26719;51.440;-2.574;2022-12-18T15:22:00;0.20;;;0.20;;
20842;SDS011;26719;51.440;-2.574;2022-12-18T15:24:30;0.10;;;0.10;;
20842;SDS011;26719;51.440;-2.574;2022-12-18T15:26:56;0.10;;;0.10;;
20842;SDS011;26719;51.440;-2.574;2022-12-18T15:29:23;0.10;;;0.10;;
20842;SDS011;26719;51.440;-2.574;2022-12-18T15:32:10;0.10;;;0.10;;
20842;SDS011;26719;51.440;-2.574;2022-12-18T15:34:41;0.10;;;0.10;;
20842;SDS011;26719;51.440;-2.574;2022-12-18T15:37:07;0.10;;;0.10;;
20842;SDS011;26719;51.440;-2.574;2022-12-18T15:39:33;0.10;;;0.10;;
20842;SDS011;26719;51.440;-2.574;2022-12-18T15:42:01;0.10;;;0.10;;
20842;SDS011;26719;51.440;-2.574;2022-12-18T15:44:45;0.10;;;0.10;;
20842;SDS011;26719;51.440;-2.574;2022-12-18T15:47:12;0.10;;;0.10;;
20842;SDS011;26719;51.440;-2.574;2022-12-18T15:49:38;0.00;;;0.00;;
20842;SDS011;26719;51.440;-2.574;2022-12-18T15:52:04;0.00;;;0.00;;
20842;SDS011;26719;51.440;-2.574;2022-12-18T15:54:31;0.10;;;0.10;;
20842;SDS011;26719;51.440;-2.574;2022-12-18T15:57:17;0.10;;;0.10;;
20842;SDS011;26719;51.440;-2.574;2022-12-18T15:59:53;0.20;;;0.20;;
20842;SDS011;26719;51.440;-2.574;2022-12-18T16:02:21;0.00;;;0.00;;
20842;SDS011;26719;51.440;-2.574;2022-12-18T16:04:47;0.10;;;0.10;;
20842;SDS011;26719;51.440;-2.574;2022-12-18T16:07:13;0.10;;;0.10;;
20842;SDS011;26719;51.440;-2.574;2022-12-18T16:09:40;0.10;;;0.10;;
20842;SDS011;26719;51.440;-2.574;2022-12-18T16:12:09;0.03;;;0.03;;
20842;SDS011;26719;51.440;-2.574;2022-12-18T16:14:39;0.10;;;0.10;;
20842;SDS011;26719;51.440;-2.574;2022-12-18T16:17:08;0.10;;;0.10;;
20842;SDS011;26719;51.440;-2.574;2022-12-18T16:19:34;0.10;;;0.10;;
20842;SDS011;26719;51.440;-2.574;2022-12-18T16:22:03;0.13;;;0.13;;
20842;SDS011;26719;51.440;-2.574;2022-12-18T16:24:31;0.00;;;0.00;;
20842;SDS011;26719;51.440;-2.574;2022-12-18T16:26:58;0.10;;;0.10;;
20842;SDS011;26719;51.440;-2.574;2022-12-18T16:29:24;0.10;;;0.10;;
20842;SDS011;26719;51.440;-2.574;2022-12-18T16:31:55;0.10;;;0.10;;
20842;SDS011;26719;51.440;-2.574;2022-12-18T16:34:23;0.10;;;0.10;;